sensor_id;sensor_type;location;lat;lon;timestamp;P1;durP1;ratioP1;P2;durP2;ratioP2
64550;SDS011;50945;44.472;-123.352;2023-02-28T00:01:19;1.23;;;0.63;;
64550;SDS011;50945;44.472;-123.352;2023-02-28T00:03:46;0.82;;;0.40;;
64550;SDS011;50945;44.472;-123.352;2023-02-28T00:06:12;0.80;;;0.60;;
64550;SDS011;50945;44.472;-123.352;2023-02-28T00:08:39;0.10;;;0.10;;
64550;SDS011;50945;44.472;-123.352;2023-02-28T00:11:06;0.20;;;0.10;;
64550;SDS011;50945;44.472;-123.352;2023-02-28T00:13:37;0.40;;;0.28;;
64550;SDS011;50945;44.472;-123.352;2023-02-28T00:16:07;0.75;;;0.75;;
64550;SDS011;50945;44.472;-123.352;2023-02-28T00:18:38;0.00;;;0.00;;
64550;SDS011;50945;44.472;-123.352;2023-02-28T00:21:05;0.60;;;0.60;;
64550;SDS011;50945;44.472;-123.352;2023-02-28T00:23:32;2.22;;;0.68;;
64550;SDS011;50945;44.472;-123.352;2023-02-28T00:25:58;1.77;;;1.67;;
64550;SDS011;50945;44.472;-123.352;2023-02-28T00:28:25;2.28;;;2.13;;
64550;SDS011;50945;44.472;-123.352;2023-02-28T00:30:51;1.92;;;1.83;;
64550;SDS011;50945;44.472;-123.352;2023-02-28T00:33:18;2.17;;;2.08;;
64550;SDS011;50945;44.472;-123.352;2023-02-28T00:35:44;1.15;;;1.05;;
64550;SDS011;50945;44.472;-123.352;2023-02-28T00:38:12;1.38;;;1.27;;
64550;SDS011;50945;44.472;-123.352;2023-02-28T00:40:39;2.63;;;2.42;;
64550;SDS011;50945;44.472;-123.352;2023-02-28T00:43:06;1.80;;;1.70;;
64550;SDS011;50945;44.472;-123.352;2023-02-28T00:45:33;2.50;;;2.30;;
64550;SDS011;50945;44.472;-123.352;2023-02-28T00:47:59;0.08;;;0.08;;
64550;SDS011;50945;44.472;-123.352;2023-02-28T00:50:25;0.47;;;0.47;;
64550;SDS011;50945;44.472;-123.352;2023-02-28T00:52:52;0.00;;;0.00;;
64550;SDS011;50945;44.472;-123.352;2023-02-28T00:55:18;0.00;;;0.00;;
64550;SDS011;50945;44.472;-123.352;2023-02-28T00:57:44;0.20;;;0.20;;
64550;SDS011;50945;44.472;-123.352;2023-02-28T01:00:11;0.00;;;0.00;;
64550;SDS011;50945;44.472;-123.352;2023-02-28T01:02:37;0.00;;;0.00;;
64550;SDS011;50945;44.472;-123.352;2023-02-28T01:05:04;0.00;;;0.00;;
64550;SDS011;50945;44.472;-123.352;2023-02-28T01:07:30;0.00;;;0.00;;
64550;SDS011;50945;44.472;-123.352;2023-02-28T01:09:57;0.00;;;0.00;;
64550;SDS011;50945;44.472;-123.352;2023-02-28T01:12:23;0.20;;;0.00;;
64550;SDS011;50945;44.472;-123.352;2023-02-28T01:14:49;0.20;;;0.10;;
64550;SDS011;50945;44.472;-123.352;2023-02-28T01:17:15;0.00;;;0.00;;
64550;SDS011;50945;44.472;-123.352;2023-02-28T01:19:42;0.10;;;0.10;;
64550;SDS011;50945;44.472;-123.352;2023-02-28T01:22:08;1.20;;;0.40;;
64550;SDS011;50945;44.472;-123.352;2023-02-28T01:24:34;0.00;;;0.00;;
64550;SDS011;50945;44.472;-123.352;2023-02-28T01:27:00;0.10;;;0.00;;
64550;SDS011;50945;44.472;-123.352;2023-02-28T01:29:27;0.00;;;0.00;;
64550;SDS011;50945;44.472;-123.352;2023-02-28T01:31:53;0.00;;;0.00;;
64550;SDS011;50945;44.472;-123.352;2023-02-28T01:34:19;0.00;;;0.00;;
64550;SDS011;50945;44.472;-123.352;2023-02-28T01:36:46;0.00;;;0.00;;
64550;SDS011;50945;44.472;-123.352;2023-02-28T01:39:12;0.00;;;0.00;;
64550;SDS011;50945;44.472;-123.352;2023-02-28T01:41:39;0.00;;;0.00;;
64550;SDS011;50945;44.472;-123.352;2023-02-28T01:44:06;0.00;;;0.00;;
64550;SDS011;50945;44.472;-123.352;2023-02-28T01:46:53;0.00;;;0.00;;
64550;SDS011;50945;44.472;-123.352;2023-02-28T01:49:19;0.00;;;0.00;;
64550;SDS011;50945;44.472;-123.352;2023-02-28T01:51:47;0.00;;;0.00;;
64550;SDS011;50945;44.472;-123.352;2023-02-28T01:54:17;0.00;;;0.00;;
64550;SDS011;50945;44.472;-123.352;2023-02-28T01:59:22;0.00;;;0.00;;
64550;SDS011;50945;44.472;-123.352;2023-02-28T02:01:55;1.02;;;0.05;;
64550;SDS011;50945;44.472;-123.352;2023-02-28T02:04:23;0.00;;;0.00;;
64550;SDS011;50945;44.472;-123.352;2023-02-28T02:06:52;0.05;;;0.00;;
64550;SDS011;50945;44.472;-123.352;2023-02-28T02:09:19;0.00;;;0.00;;
64550;SDS011;50945;44.472;-123.352;2023-02-28T02:11:45;0.00;;;0.00;;
64550;SDS011;50945;44.472;-123.352;2023-02-28T02:14:36;0.00;;;0.00;;
64550;SDS011;50945;44.472;-123.352;2023-02-28T02:17:35;0.10;;;0.10;;
64550;SDS011;50945;44.472;-123.352;2023-02-28T02:25:53;0.55;;;0.55;;
64550;SDS011;50945;44.472;-123.352;2023-02-28T02:31:22;4.18;;;2.78;;
64550;SDS011;50945;44.472;-123.352;2023-02-28T02:42:51;0.00;;;0.00;;
64550;SDS011;50945;44.472;-123.352;2023-02-28T02:48:16;0.40;;;0.05;;
64550;SDS011;50945;44.472;-123.352;2023-02-28T02:50:51;0.10;;;0.10;;
64550;SDS011;50945;44.472;-123.352;2023-02-28T02:53:22;0.00;;;0.00;;
64550;SDS011;50945;44.472;-123.352;2023-02-28T02:55:54;0.00;;;0.00;;
64550;SDS011;50945;44.472;-123.352;2023-02-28T02:58:25;0.20;;;0.10;;
64550;SDS011;50945;44.472;-123.352;2023-02-28T03:00:58;1.33;;;1.27;;
64550;SDS011;50945;44.472;-123.352;2023-02-28T03:03:27;1.40;;;1.30;;
64550;SDS011;50945;44.472;-123.352;2023-02-28T03:05:57;1.60;;;1.60;;
64550;SDS011;50945;44.472;-123.352;2023-02-28T03:08:25;1.52;;;1.52;;
64550;SDS011;50945;44.472;-123.352;2023-02-28T03:10:58;1.70;;;1.60;;
64550;SDS011;50945;44.472;-123.352;2023-02-28T03:29:56;0.00;;;0.00;;
64550;SDS011;50945;44.472;-123.352;2023-02-28T03:35:24;0.00;;;0.00;;
64550;SDS011;50945;44.472;-123.352;2023-02-28T03:37:55;0.30;;;0.10;;
64550;SDS011;50945;44.472;-123.352;2023-02-28T03:40:30;0.10;;;0.08;;
64550;SDS011;50945;44.472;-123.352;2023-02-28T03:43:02;0.10;;;0.10;;
64550;SDS011;50945;44.472;-123.352;2023-02-28T03:45:33;0.00;;;0.00;;
64550;SDS011;50945;44.472;-123.352;2023-02-28T03:48:06;0.03;;;0.03;;
64550;SDS011;50945;44.472;-123.352;2023-02-28T03:50:42;0.00;;;0.00;;
64550;SDS011;50945;44.472;-123.352;2023-02-28T03:53:16;0.00;;;0.00;;
64550;SDS011;50945;44.472;-123.352;2023-02-28T03:55:59;0.00;;;0.00;;
64550;SDS011;50945;44.472;-123.352;2023-02-28T03:58:54;0.00;;;0.00;;
64550;SDS011;50945;44.472;-123.352;2023-02-28T04:01:36;0.00;;;0.00;;
64550;SDS011;50945;44.472;-123.352;2023-02-28T04:04:08;0.03;;;0.00;;
64550;SDS011;50945;44.472;-123.352;2023-02-28T04:09:02;0.00;;;0.00;;
64550;SDS011;50945;44.472;-123.352;2023-02-28T04:15:06;0.00;;;0.00;;
64550;SDS011;50945;44.472;-123.352;2023-02-28T04:19:59;0.00;;;0.00;;
64550;SDS011;50945;44.472;-123.352;2023-02-28T04:22:25;0.00;;;0.00;;
64550;SDS011;50945;44.472;-123.352;2023-02-28T04:24:51;0.20;;;0.10;;
64550;SDS011;50945;44.472;-123.352;2023-02-28T04:27:20;0.00;;;0.00;;
64550;SDS011;50945;44.472;-123.352;2023-02-28T04:29:47;0.00;;;0.00;;
64550;SDS011;50945;44.472;-123.352;2023-02-28T04:32:16;0.00;;;0.00;;
64550;SDS011;50945;44.472;-123.352;2023-02-28T04:34:42;0.00;;;0.00;;
64550;SDS011;50945;44.472;-123.352;2023-02-28T04:37:13;0.08;;;0.08;;
64550;SDS011;50945;44.472;-123.352;2023-02-28T04:39:40;0.08;;;0.08;;
64550;SDS011;50945;44.472;-123.352;2023-02-28T04:42:07;0.10;;;0.10;;
64550;SDS011;50945;44.472;-123.352;2023-02-28T04:44:35;0.03;;;0.03;;
64550;SDS011;50945;44.472;-123.352;2023-02-28T04:47:01;0.10;;;0.10;;
64550;SDS011;50945;44.472;-123.352;2023-02-28T04:49:27;0.00;;;0.00;;
64550;SDS011;50945;44.472;-123.352;2023-02-28T04:51:54;0.00;;;0.00;;
64550;SDS011;50945;44.472;-123.352;2023-02-28T04:54:21;0.20;;;0.20;;
64550;SDS011;50945;44.472;-123.352;2023-02-28T04:56:47;0.10;;;0.10;;
64550;SDS011;50945;44.472;-123.352;2023-02-28T04:59:15;0.00;;;0.00;;
64550;SDS011;50945;44.472;-123.352;2023-02-28T05:01:45;0.30;;;0.30;;
64550;SDS011;50945;44.472;-123.352;2023-02-28T05:04:13;0.00;;;0.00;;
64550;SDS011;50945;44.472;-123.352;2023-02-28T05:06:39;0.30;;;0.00;;
64550;SDS011;50945;44.472;-123.352;2023-02-28T05:09:05;0.00;;;0.00;;
64550;SDS011;50945;44.472;-123.352;2023-02-28T05:11:33;1.95;;;0.20;;
64550;SDS011;50945;44.472;-123.352;2023-02-28T05:14:01;0.00;;;0.00;;
64550;SDS011;50945;44.472;-123.352;2023-02-28T05:16:29;0.08;;;0.00;;
64550;SDS011;50945;44.472;-123.352;2023-02-28T05:18:56;0.10;;;0.10;;
64550;SDS011;50945;44.472;-123.352;2023-02-28T05:21:27;0.40;;;0.20;;
64550;SDS011;50945;44.472;-123.352;2023-02-28T05:23:59;0.40;;;0.40;;
64550;SDS011;50945;44.472;-123.352;2023-02-28T05:26:30;0.88;;;0.10;;
64550;SDS011;50945;44.472;-123.352;2023-02-28T05:28:57;0.08;;;0.08;;
64550;SDS011;50945;44.472;-123.352;2023-02-28T05:31:23;0.22;;;0.10;;
64550;SDS011;50945;44.472;-123.352;2023-02-28T05:33:49;0.85;;;0.05;;
64550;SDS011;50945;44.472;-123.352;2023-02-28T05:36:16;0.10;;;0.00;;
64550;SDS011;50945;44.472;-123.352;2023-02-28T05:38:45;0.28;;;0.10;;
64550;SDS011;50945;44.472;-123.352;2023-02-28T05:41:18;0.00;;;0.00;;
64550;SDS011;50945;44.472;-123.352;2023-02-28T05:43:45;0.10;;;0.10;;
64550;SDS011;50945;44.472;-123.352;2023-02-28T05:46:14;0.08;;;0.08;;
64550;SDS011;50945;44.472;-123.352;2023-02-28T05:48:41;0.47;;;0.10;;
64550;SDS011;50945;44.472;-123.352;2023-02-28T05:53:34;0.00;;;0.00;;
64550;SDS011;50945;44.472;-123.352;2023-02-28T05:56:03;0.00;;;0.00;;
64550;SDS011;50945;44.472;-123.352;2023-02-28T05:58:30;0.00;;;0.00;;
64550;SDS011;50945;44.472;-123.352;2023-02-28T06:00:57;0.20;;;0.05;;
64550;SDS011;50945;44.472;-123.352;2023-02-28T06:05:50;0.10;;;0.00;;
64550;SDS011;50945;44.472;-123.352;2023-02-28T06:08:17;0.10;;;0.10;;
64550;SDS011;50945;44.472;-123.352;2023-02-28T06:10:43;0.10;;;0.10;;
64550;SDS011;50945;44.472;-123.352;2023-02-28T06:13:10;0.00;;;0.00;;
64550;SDS011;50945;44.472;-123.352;2023-02-28T06:15:38;0.10;;;0.10;;
64550;SDS011;50945;44.472;-123.352;2023-02-28T06:18:04;1.13;;;0.20;;
64550;SDS011;50945;44.472;-123.352;2023-02-28T06:20:31;0.10;;;0.10;;
64550;SDS011;50945;44.472;-123.352;2023-02-28T06:22:57;0.35;;;0.20;;
64550;SDS011;50945;44.472;-123.352;2023-02-28T06:25:24;0.00;;;0.00;;
64550;SDS011;50945;44.472;-123.352;2023-02-28T06:27:51;0.35;;;0.17;;
64550;SDS011;50945;44.472;-123.352;2023-02-28T06:30:18;0.10;;;0.10;;
64550;SDS011;50945;44.472;-123.352;2023-02-28T06:32:49;0.70;;;0.22;;
64550;SDS011;50945;44.472;-123.352;2023-02-28T06:35:15;0.35;;;0.10;;
64550;SDS011;50945;44.472;-123.352;2023-02-28T06:37:41;0.10;;;0.10;;
64550;SDS011;50945;44.472;-123.352;2023-02-28T06:42:35;0.10;;;0.10;;
64550;SDS011;50945;44.472;-123.352;2023-02-28T06:45:03;1.48;;;0.30;;
64550;SDS011;50945;44.472;-123.352;2023-02-28T06:47:35;0.68;;;0.68;;
64550;SDS011;50945;44.472;-123.352;2023-02-28T06:50:02;3.55;;;3.10;;
64550;SDS011;50945;44.472;-123.352;2023-02-28T06:52:32;2.13;;;1.90;;
64550;SDS011;50945;44.472;-123.352;2023-02-28T06:55:01;2.47;;;0.80;;
64550;SDS011;50945;44.472;-123.352;2023-02-28T06:57:29;0.90;;;0.43;;
64550;SDS011;50945;44.472;-123.352;2023-02-28T06:59:59;0.60;;;0.28;;
64550;SDS011;50945;44.472;-123.352;2023-02-28T07:02:27;0.52;;;0.20;;
64550;SDS011;50945;44.472;-123.352;2023-02-28T07:04:53;1.85;;;0.30;;
64550;SDS011;50945;44.472;-123.352;2023-02-28T07:07:20;0.30;;;0.00;;
64550;SDS011;50945;44.472;-123.352;2023-02-28T07:09:46;0.10;;;0.10;;
64550;SDS011;50945;44.472;-123.352;2023-02-28T07:12:12;1.95;;;0.82;;
64550;SDS011;50945;44.472;-123.352;2023-02-28T07:14:39;1.73;;;0.28;;
64550;SDS011;50945;44.472;-123.352;2023-02-28T07:17:08;3.22;;;0.60;;
64550;SDS011;50945;44.472;-123.352;2023-02-28T07:19:38;0.65;;;0.38;;
64550;SDS011;50945;44.472;-123.352;2023-02-28T07:22:05;1.77;;;0.50;;
64550;SDS011;50945;44.472;-123.352;2023-02-28T07:24:31;0.88;;;0.43;;
64550;SDS011;50945;44.472;-123.352;2023-02-28T07:26:57;0.10;;;0.10;;
64550;SDS011;50945;44.472;-123.352;2023-02-28T07:29:24;2.65;;;0.43;;
64550;SDS011;50945;44.472;-123.352;2023-02-28T07:31:51;2.58;;;0.65;;
64550;SDS011;50945;44.472;-123.352;2023-02-28T07:34:18;0.77;;;0.43;;
64550;SDS011;50945;44.472;-123.352;2023-02-28T07:36:45;0.77;;;0.30;;
64550;SDS011;50945;44.472;-123.352;2023-02-28T07:39:13;4.47;;;1.02;;
64550;SDS011;50945;44.472;-123.352;2023-02-28T07:41:39;5.45;;;0.63;;
64550;SDS011;50945;44.472;-123.352;2023-02-28T07:44:11;0.70;;;0.30;;
64550;SDS011;50945;44.472;-123.352;2023-02-28T07:46:38;1.05;;;0.35;;
64550;SDS011;50945;44.472;-123.352;2023-02-28T07:49:05;2.25;;;0.30;;
64550;SDS011;50945;44.472;-123.352;2023-02-28T07:51:32;1.45;;;0.70;;
64550;SDS011;50945;44.472;-123.352;2023-02-28T07:53:58;0.82;;;0.30;;
64550;SDS011;50945;44.472;-123.352;2023-02-28T07:56:24;0.68;;;0.30;;
64550;SDS011;50945;44.472;-123.352;2023-02-28T07:58:51;0.47;;;0.43;;
64550;SDS011;50945;44.472;-123.352;2023-02-28T08:01:17;0.03;;;0.00;;
64550;SDS011;50945;44.472;-123.352;2023-02-28T08:03:44;0.90;;;0.60;;
64550;SDS011;50945;44.472;-123.352;2023-02-28T08:06:16;0.52;;;0.20;;
64550;SDS011;50945;44.472;-123.352;2023-02-28T08:08:43;2.38;;;0.25;;
64550;SDS011;50945;44.472;-123.352;2023-02-28T08:11:10;0.75;;;0.30;;
64550;SDS011;50945;44.472;-123.352;2023-02-28T08:13:36;2.15;;;0.40;;
64550;SDS011;50945;44.472;-123.352;2023-02-28T08:16:02;0.20;;;0.10;;
64550;SDS011;50945;44.472;-123.352;2023-02-28T08:18:29;2.17;;;0.75;;
64550;SDS011;50945;44.472;-123.352;2023-02-28T08:20:56;2.75;;;0.55;;
64550;SDS011;50945;44.472;-123.352;2023-02-28T08:23:22;1.15;;;0.45;;
64550;SDS011;50945;44.472;-123.352;2023-02-28T08:25:55;0.32;;;0.25;;
64550;SDS011;50945;44.472;-123.352;2023-02-28T08:28:22;2.45;;;0.32;;
64550;SDS011;50945;44.472;-123.352;2023-02-28T08:30:48;2.30;;;0.30;;
64550;SDS011;50945;44.472;-123.352;2023-02-28T08:33:15;0.50;;;0.50;;
64550;SDS011;50945;44.472;-123.352;2023-02-28T08:35:41;1.27;;;0.30;;
64550;SDS011;50945;44.472;-123.352;2023-02-28T08:38:07;1.65;;;0.40;;
64550;SDS011;50945;44.472;-123.352;2023-02-28T08:40:33;2.42;;;0.30;;
64550;SDS011;50945;44.472;-123.352;2023-02-28T08:43:00;1.25;;;0.60;;
64550;SDS011;50945;44.472;-123.352;2023-02-28T08:45:26;2.70;;;0.35;;
64550;SDS011;50945;44.472;-123.352;2023-02-28T08:47:53;4.82;;;0.80;;
64550;SDS011;50945;44.472;-123.352;2023-02-28T08:50:20;1.42;;;0.73;;
64550;SDS011;50945;44.472;-123.352;2023-02-28T08:52:47;1.67;;;0.50;;
64550;SDS011;50945;44.472;-123.352;2023-02-28T08:55:14;0.28;;;0.25;;
64550;SDS011;50945;44.472;-123.352;2023-02-28T08:57:40;2.15;;;0.50;;
64550;SDS011;50945;44.472;-123.352;2023-02-28T09:00:08;1.45;;;0.57;;
64550;SDS011;50945;44.472;-123.352;2023-02-28T09:02:39;4.15;;;0.90;;
64550;SDS011;50945;44.472;-123.352;2023-02-28T09:05:08;0.88;;;0.63;;
64550;SDS011;50945;44.472;-123.352;2023-02-28T09:07:34;2.33;;;0.45;;
64550;SDS011;50945;44.472;-123.352;2023-02-28T09:10:01;8.98;;;0.98;;
64550;SDS011;50945;44.472;-123.352;2023-02-28T09:12:27;2.30;;;0.57;;
64550;SDS011;50945;44.472;-123.352;2023-02-28T09:14:59;3.30;;;1.15;;
64550;SDS011;50945;44.472;-123.352;2023-02-28T09:17:28;0.70;;;0.68;;
64550;SDS011;50945;44.472;-123.352;2023-02-28T09:19:54;3.70;;;0.90;;
64550;SDS011;50945;44.472;-123.352;2023-02-28T09:22:20;1.55;;;0.65;;
64550;SDS011;50945;44.472;-123.352;2023-02-28T09:24:47;2.85;;;0.80;;
64550;SDS011;50945;44.472;-123.352;2023-02-28T09:27:13;0.32;;;0.20;;
64550;SDS011;50945;44.472;-123.352;2023-02-28T09:29:39;2.97;;;0.70;;
64550;SDS011;50945;44.472;-123.352;2023-02-28T09:32:05;3.63;;;0.80;;
64550;SDS011;50945;44.472;-123.352;2023-02-28T09:34:32;0.98;;;0.57;;
64550;SDS011;50945;44.472;-123.352;2023-02-28T09:36:58;4.40;;;0.75;;
64550;SDS011;50945;44.472;-123.352;2023-02-28T09:39:25;5.35;;;0.90;;
64550;SDS011;50945;44.472;-123.352;2023-02-28T09:41:52;2.08;;;1.25;;
64550;SDS011;50945;44.472;-123.352;2023-02-28T09:44:40;0.90;;;0.52;;
64550;SDS011;50945;44.472;-123.352;2023-02-28T09:49:52;2.05;;;0.57;;
64550;SDS011;50945;44.472;-123.352;2023-02-28T09:52:21;3.38;;;0.75;;
64550;SDS011;50945;44.472;-123.352;2023-02-28T09:54:53;1.58;;;0.70;;
64550;SDS011;50945;44.472;-123.352;2023-02-28T10:00:06;5.40;;;0.77;;
64550;SDS011;50945;44.472;-123.352;2023-02-28T10:05:54;1.85;;;0.70;;
64550;SDS011;50945;44.472;-123.352;2023-02-28T10:08:34;1.38;;;1.02;;
64550;SDS011;50945;44.472;-123.352;2023-02-28T10:11:09;1.50;;;0.98;;
64550;SDS011;50945;44.472;-123.352;2023-02-28T10:16:22;0.75;;;0.35;;
64550;SDS011;50945;44.472;-123.352;2023-02-28T10:18:58;1.38;;;0.80;;
64550;SDS011;50945;44.472;-123.352;2023-02-28T10:27:09;1.60;;;0.30;;
64550;SDS011;50945;44.472;-123.352;2023-02-28T10:29:40;0.95;;;0.63;;
64550;SDS011;50945;44.472;-123.352;2023-02-28T10:32:10;1.90;;;0.75;;
64550;SDS011;50945;44.472;-123.352;2023-02-28T10:35:14;0.85;;;0.70;;
64550;SDS011;50945;44.472;-123.352;2023-02-28T10:37:44;2.03;;;0.40;;
64550;SDS011;50945;44.472;-123.352;2023-02-28T10:45:33;2.15;;;0.63;;
64550;SDS011;50945;44.472;-123.352;2023-02-28T10:48:05;3.75;;;1.08;;
64550;SDS011;50945;44.472;-123.352;2023-02-28T10:50:52;2.85;;;1.10;;
64550;SDS011;50945;44.472;-123.352;2023-02-28T10:58:31;1.13;;;0.90;;
64550;SDS011;50945;44.472;-123.352;2023-02-28T11:00:58;2.45;;;0.90;;
64550;SDS011;50945;44.472;-123.352;2023-02-28T11:03:34;1.15;;;0.95;;
64550;SDS011;50945;44.472;-123.352;2023-02-28T11:06:04;2.47;;;0.70;;
64550;SDS011;50945;44.472;-123.352;2023-02-28T11:08:33;0.52;;;0.45;;
64550;SDS011;50945;44.472;-123.352;2023-02-28T11:11:03;1.15;;;0.55;;
64550;SDS011;50945;44.472;-123.352;2023-02-28T11:13:32;2.05;;;0.68;;
64550;SDS011;50945;44.472;-123.352;2023-02-28T11:16:03;3.38;;;0.82;;
64550;SDS011;50945;44.472;-123.352;2023-02-28T11:21:03;1.88;;;0.47;;
64550;SDS011;50945;44.472;-123.352;2023-02-28T11:23:30;2.58;;;1.02;;
64550;SDS011;50945;44.472;-123.352;2023-02-28T11:26:00;3.08;;;1.02;;
64550;SDS011;50945;44.472;-123.352;2023-02-28T11:28:36;3.60;;;0.70;;
64550;SDS011;50945;44.472;-123.352;2023-02-28T11:36:20;5.10;;;0.93;;
64550;SDS011;50945;44.472;-123.352;2023-02-28T11:38:56;2.03;;;0.57;;
64550;SDS011;50945;44.472;-123.352;2023-02-28T11:47:41;1.38;;;1.27;;
64550;SDS011;50945;44.472;-123.352;2023-02-28T11:55:36;1.95;;;0.93;;
64550;SDS011;50945;44.472;-123.352;2023-02-28T11:58:33;0.80;;;0.50;;
64550;SDS011;50945;44.472;-123.352;2023-02-28T12:07:00;2.15;;;0.68;;
64550;SDS011;50945;44.472;-123.352;2023-02-28T12:12:38;2.38;;;0.95;;
64550;SDS011;50945;44.472;-123.352;2023-02-28T12:18:05;3.28;;;0.93;;
64550;SDS011;50945;44.472;-123.352;2023-02-28T12:20:59;1.40;;;0.50;;
64550;SDS011;50945;44.472;-123.352;2023-02-28T12:28:30;0.80;;;0.57;;
64550;SDS011;50945;44.472;-123.352;2023-02-28T12:34:31;0.22;;;0.22;;
64550;SDS011;50945;44.472;-123.352;2023-02-28T12:37:04;2.88;;;0.60;;
64550;SDS011;50945;44.472;-123.352;2023-02-28T12:39:49;1.63;;;0.80;;
64550;SDS011;50945;44.472;-123.352;2023-02-28T12:42:40;2.47;;;0.50;;
64550;SDS011;50945;44.472;-123.352;2023-02-28T12:45:19;0.60;;;0.60;;
64550;SDS011;50945;44.472;-123.352;2023-02-28T12:47:59;0.70;;;0.55;;
64550;SDS011;50945;44.472;-123.352;2023-02-28T12:50:29;1.77;;;0.32;;
64550;SDS011;50945;44.472;-123.352;2023-02-28T12:55:39;0.50;;;0.50;;
64550;SDS011;50945;44.472;-123.352;2023-02-28T13:01:57;0.22;;;0.22;;
64550;SDS011;50945;44.472;-123.352;2023-02-28T13:10:45;0.20;;;0.20;;
64550;SDS011;50945;44.472;-123.352;2023-02-28T13:13:20;1.65;;;0.52;;
64550;SDS011;50945;44.472;-123.352;2023-02-28T13:16:01;0.90;;;0.52;;
64550;SDS011;50945;44.472;-123.352;2023-02-28T13:18:32;1.02;;;0.57;;
64550;SDS011;50945;44.472;-123.352;2023-02-28T13:21:06;1.27;;;0.55;;
64550;SDS011;50945;44.472;-123.352;2023-02-28T13:31:24;0.30;;;0.30;;
64550;SDS011;50945;44.472;-123.352;2023-02-28T13:36:26;1.08;;;0.60;;
64550;SDS011;50945;44.472;-123.352;2023-02-28T13:38:58;0.45;;;0.30;;
64550;SDS011;50945;44.472;-123.352;2023-02-28T13:41:40;0.30;;;0.30;;
64550;SDS011;50945;44.472;-123.352;2023-02-28T13:44:25;1.08;;;0.68;;
64550;SDS011;50945;44.472;-123.352;2023-02-28T13:57:23;0.22;;;0.22;;
64550;SDS011;50945;44.472;-123.352;2023-02-28T14:06:18;0.47;;;0.47;;
64550;SDS011;50945;44.472;-123.352;2023-02-28T14:11:40;0.32;;;0.32;;
64550;SDS011;50945;44.472;-123.352;2023-02-28T14:14:08;0.60;;;0.50;;
64550;SDS011;50945;44.472;-123.352;2023-02-28T14:16:55;0.38;;;0.30;;
64550;SDS011;50945;44.472;-123.352;2023-02-28T14:19:32;0.30;;;0.30;;
64550;SDS011;50945;44.472;-123.352;2023-02-28T14:33:43;1.95;;;0.32;;
64550;SDS011;50945;44.472;-123.352;2023-02-28T14:36:22;0.50;;;0.50;;
64550;SDS011;50945;44.472;-123.352;2023-02-28T14:38:56;0.20;;;0.20;;
64550;SDS011;50945;44.472;-123.352;2023-02-28T14:41:33;0.38;;;0.20;;
64550;SDS011;50945;44.472;-123.352;2023-02-28T14:44:03;0.45;;;0.25;;
64550;SDS011;50945;44.472;-123.352;2023-02-28T14:52:14;0.45;;;0.28;;
64550;SDS011;50945;44.472;-123.352;2023-02-28T14:54:45;0.40;;;0.40;;
64550;SDS011;50945;44.472;-123.352;2023-02-28T14:57:27;0.28;;;0.28;;
64550;SDS011;50945;44.472;-123.352;2023-02-28T15:00:03;0.25;;;0.25;;
64550;SDS011;50945;44.472;-123.352;2023-02-28T15:02:39;0.15;;;0.15;;
64550;SDS011;50945;44.472;-123.352;2023-02-28T15:07:59;0.10;;;0.10;;
64550;SDS011;50945;44.472;-123.352;2023-02-28T15:10:31;0.20;;;0.20;;
64550;SDS011;50945;44.472;-123.352;2023-02-28T15:12:59;0.20;;;0.20;;
64550;SDS011;50945;44.472;-123.352;2023-02-28T15:15:45;0.40;;;0.35;;
64550;SDS011;50945;44.472;-123.352;2023-02-28T15:21:06;0.85;;;0.15;;
64550;SDS011;50945;44.472;-123.352;2023-02-28T15:23:41;3.10;;;0.32;;
64550;SDS011;50945;44.472;-123.352;2023-02-28T15:26:18;0.50;;;0.50;;
64550;SDS011;50945;44.472;-123.352;2023-02-28T15:28:57;0.30;;;0.30;;
64550;SDS011;50945;44.472;-123.352;2023-02-28T15:31:39;1.75;;;0.55;;
64550;SDS011;50945;44.472;-123.352;2023-02-28T15:34:17;0.20;;;0.20;;
64550;SDS011;50945;44.472;-123.352;2023-02-28T15:36:46;0.38;;;0.38;;
64550;SDS011;50945;44.472;-123.352;2023-02-28T15:39:26;0.28;;;0.10;;
64550;SDS011;50945;44.472;-123.352;2023-02-28T15:44:58;1.20;;;0.40;;
64550;SDS011;50945;44.472;-123.352;2023-02-28T15:47:29;0.40;;;0.40;;
64550;SDS011;50945;44.472;-123.352;2023-02-28T15:49:57;0.20;;;0.20;;
64550;SDS011;50945;44.472;-123.352;2023-02-28T15:57:54;0.80;;;0.80;;
64550;SDS011;50945;44.472;-123.352;2023-02-28T16:00:26;0.90;;;0.60;;
64550;SDS011;50945;44.472;-123.352;2023-02-28T16:02:54;2.25;;;1.23;;
64550;SDS011;50945;44.472;-123.352;2023-02-28T16:05:24;1.80;;;0.80;;
64550;SDS011;50945;44.472;-123.352;2023-02-28T16:08:11;0.60;;;0.60;;
64550;SDS011;50945;44.472;-123.352;2023-02-28T16:10:41;0.57;;;0.57;;
64550;SDS011;50945;44.472;-123.352;2023-02-28T16:13:08;0.70;;;0.55;;
64550;SDS011;50945;44.472;-123.352;2023-02-28T16:15:41;0.70;;;0.70;;
64550;SDS011;50945;44.472;-123.352;2023-02-28T16:18:11;2.10;;;1.17;;
64550;SDS011;50945;44.472;-123.352;2023-02-28T16:20:39;1.30;;;1.20;;
64550;SDS011;50945;44.472;-123.352;2023-02-28T16:23:06;1.38;;;1.20;;
64550;SDS011;50945;44.472;-123.352;2023-02-28T16:25:34;1.20;;;0.93;;
64550;SDS011;50945;44.472;-123.352;2023-02-28T16:28:02;1.08;;;0.98;;
64550;SDS011;50945;44.472;-123.352;2023-02-28T16:30:30;1.33;;;1.23;;
64550;SDS011;50945;44.472;-123.352;2023-02-28T16:32:59;1.20;;;1.10;;
64550;SDS011;50945;44.472;-123.352;2023-02-28T16:35:25;2.75;;;1.27;;
64550;SDS011;50945;44.472;-123.352;2023-02-28T16:37:52;2.40;;;1.70;;
64550;SDS011;50945;44.472;-123.352;2023-02-28T16:40:21;2.65;;;1.45;;
64550;SDS011;50945;44.472;-123.352;2023-02-28T16:42:51;2.15;;;1.40;;
64550;SDS011;50945;44.472;-123.352;2023-02-28T16:45:22;1.52;;;1.10;;
64550;SDS011;50945;44.472;-123.352;2023-02-28T16:47:54;1.45;;;1.35;;
64550;SDS011;50945;44.472;-123.352;2023-02-28T16:50:22;1.00;;;0.90;;
64550;SDS011;50945;44.472;-123.352;2023-02-28T16:52:54;1.42;;;1.33;;
64550;SDS011;50945;44.472;-123.352;2023-02-28T16:55:30;1.85;;;1.25;;
64550;SDS011;50945;44.472;-123.352;2023-02-28T16:57:59;1.33;;;1.17;;
64550;SDS011;50945;44.472;-123.352;2023-02-28T17:00:27;0.75;;;0.63;;
64550;SDS011;50945;44.472;-123.352;2023-02-28T17:02:55;0.90;;;0.85;;
64550;SDS011;50945;44.472;-123.352;2023-02-28T17:05:21;0.80;;;0.80;;
64550;SDS011;50945;44.472;-123.352;2023-02-28T17:07:49;0.60;;;0.60;;
64550;SDS011;50945;44.472;-123.352;2023-02-28T17:10:22;0.75;;;0.73;;
64550;SDS011;50945;44.472;-123.352;2023-02-28T17:12:50;1.08;;;0.93;;
64550;SDS011;50945;44.472;-123.352;2023-02-28T17:15:18;0.43;;;0.43;;
64550;SDS011;50945;44.472;-123.352;2023-02-28T17:17:45;0.35;;;0.35;;
64550;SDS011;50945;44.472;-123.352;2023-02-28T17:20:17;0.70;;;0.70;;
64550;SDS011;50945;44.472;-123.352;2023-02-28T17:22:50;2.85;;;0.68;;
64550;SDS011;50945;44.472;-123.352;2023-02-28T17:25:16;0.63;;;0.63;;
64550;SDS011;50945;44.472;-123.352;2023-02-28T17:27:43;0.52;;;0.52;;
64550;SDS011;50945;44.472;-123.352;2023-02-28T17:30:23;0.40;;;0.40;;
64550;SDS011;50945;44.472;-123.352;2023-02-28T17:32:53;1.23;;;0.77;;
64550;SDS011;50945;44.472;-123.352;2023-02-28T17:35:20;0.98;;;0.98;;
64550;SDS011;50945;44.472;-123.352;2023-02-28T17:37:46;0.68;;;0.65;;
64550;SDS011;50945;44.472;-123.352;2023-02-28T17:40:14;0.52;;;0.52;;
64550;SDS011;50945;44.472;-123.352;2023-02-28T17:42:42;0.95;;;0.93;;
64550;SDS011;50945;44.472;-123.352;2023-02-28T17:45:10;3.13;;;0.98;;